createdAt,value
2018-01-04T00:02:17.603Z,55.20
2018-01-04T00:04:46.103Z,55.20
2018-01-04T00:07:14.269Z,55.20
2018-01-04T00:09:42.575Z,55.30
2018-01-04T00:12:10.917Z,55.20
2018-01-04T00:14:39.116Z,55.30
2018-01-04T00:17:07.276Z,55.30
2018-01-04T00:19:35.741Z,55.20
2018-01-04T00:22:03.878Z,55.20
2018-01-04T00:24:32.075Z,55.30
2018-01-04T00:27:01.051Z,55.20
2018-01-04T00:29:29.215Z,55.30
2018-01-04T00:31:58.330Z,55.40
2018-01-04T00:34:26.595Z,55.40
2018-01-04T00:36:54.760Z,55.30
2018-01-04T00:39:23.492Z,55.30
2018-01-04T00:41:51.665Z,55.20
2018-01-04T00:44:20.021Z,55.20
2018-01-04T00:46:48.209Z,55.20
2018-01-04T00:49:16.388Z,55.20
2018-01-04T00:51:44.562Z,55.20
2018-01-04T00:54:12.939Z,55.20
2018-01-04T00:56:41.099Z,55.20
2018-01-04T00:59:09.375Z,55.20
2018-01-04T01:01:37.634Z,55.30
2018-01-04T01:04:06.694Z,55.20
2018-01-04T01:06:34.890Z,55.20
2018-01-04T01:09:03.055Z,55.20
2018-01-04T01:11:31.359Z,55.20
2018-01-04T01:14:00.382Z,55.20
2018-01-04T01:16:28.549Z,55.20
2018-01-04T01:18:56.707Z,55.20
2018-01-04T01:21:24.878Z,55.20
2018-01-04T01:23:53.125Z,55.20
2018-01-04T01:26:23.242Z,55.30
2018-01-04T01:28:51.411Z,55.30
2018-01-04T01:31:19.582Z,55.20
2018-01-04T01:33:47.771Z,55.20
2018-01-04T01:36:16.109Z,55.20
2018-01-04T01:38:44.265Z,55.20
2018-01-04T01:41:12.464Z,55.20
2018-01-04T01:43:40.632Z,55.10
2018-01-04T01:46:08.796Z,55.10
2018-01-04T01:48:36.970Z,55.10
2018-01-04T01:51:05.191Z,55.10
2018-01-04T01:53:33.495Z,55.00
2018-01-04T01:56:01.698Z,54.90
2018-01-04T01:58:29.879Z,55.00
2018-01-04T02:00:58.033Z,55.00
2018-01-04T02:03:26.264Z,55.10
2018-01-04T02:05:54.466Z,55.10
2018-01-04T02:08:22.748Z,55.10
2018-01-04T02:10:51.694Z,55.10
2018-01-04T02:13:19.941Z,55.70
2018-01-04T02:15:48.110Z,55.10
2018-01-04T02:18:27.526Z,55.20
2018-01-04T02:21:07.390Z,55.10
2018-01-04T02:23:46.938Z,55.10
2018-01-04T02:26:26.455Z,55.20
2018-01-04T02:28:58.660Z,55.20
2018-01-04T02:31:38.298Z,55.20
2018-01-04T02:34:17.913Z,55.20
2018-01-04T02:50:13.453Z,55.10
2018-01-04T02:52:41.643Z,55.10
2018-01-04T02:55:09.919Z,55.20
2018-01-04T02:57:38.025Z,55.20
2018-01-04T03:00:06.976Z,55.30
2018-01-04T03:02:35.135Z,55.30
2018-01-04T03:05:03.415Z,55.20
2018-01-04T03:07:31.587Z,55.20
2018-01-04T03:09:59.758Z,55.20
2018-01-04T03:12:27.916Z,55.30
2018-01-04T03:14:56.225Z,55.30
2018-01-04T03:17:24.430Z,55.30
2018-01-04T03:19:52.588Z,55.30
2018-01-04T03:22:26.359Z,55.20
2018-01-04T03:24:59.938Z,55.20
2018-01-04T03:27:34.349Z,55.20
2018-01-04T03:30:08.904Z,55.20
2018-01-04T03:46:14.493Z,55.20
2018-01-04T03:48:49.203Z,55.20
2018-01-04T03:51:23.059Z,55.20
2018-01-04T03:53:57.431Z,55.30
2018-01-04T03:56:31.314Z,55.30
2018-01-04T03:59:04.927Z,55.20
2018-01-04T04:04:37.557Z,55.20
2018-01-04T04:07:11.284Z,55.30
2018-01-04T04:09:40.237Z,55.30
2018-01-04T04:12:08.438Z,55.30
2018-01-04T04:14:36.731Z,55.30
2018-01-04T04:17:05.691Z,55.20
2018-01-04T04:19:33.997Z,55.20
2018-01-04T04:22:02.956Z,55.20
2018-01-04T04:24:31.419Z,55.20
2018-01-04T04:26:59.756Z,55.20
2018-01-04T04:29:28.740Z,55.20
2018-01-04T04:31:57.691Z,55.30
2018-01-04T04:34:25.852Z,55.20
2018-01-04T04:36:54.018Z,55.30
2018-01-04T04:39:22.358Z,55.30
2018-01-04T04:41:51.354Z,55.90
2018-01-04T04:44:20.297Z,55.30
2018-01-04T04:46:48.510Z,55.20
2018-01-04T04:49:16.711Z,55.30
2018-01-04T04:51:45.314Z,55.30
2018-01-04T04:54:13.754Z,55.30
2018-01-04T04:56:42.689Z,55.30
2018-01-04T04:59:10.867Z,55.30
2018-01-04T05:01:39.720Z,55.30
2018-01-04T05:04:08.744Z,55.30
2018-01-04T05:06:36.927Z,55.30
2018-01-04T05:09:04.620Z,55.20
2018-01-04T05:11:32.880Z,55.30
2018-01-04T05:14:01.056Z,55.30
2018-01-04T05:16:29.256Z,55.30
2018-01-04T05:18:57.444Z,55.30
2018-01-04T05:21:26.477Z,55.30
2018-01-04T05:23:54.642Z,55.30
2018-01-04T05:26:22.867Z,55.30
2018-01-04T05:28:51.057Z,55.30
2018-01-04T05:31:20.091Z,55.30
2018-01-04T05:33:48.319Z,55.30
2018-01-04T05:36:16.569Z,55.30
2018-01-04T05:38:44.721Z,55.60
2018-01-04T05:41:12.908Z,55.30
2018-01-04T05:43:41.150Z,55.30
2018-01-04T05:46:09.323Z,55.30
2018-01-04T05:48:37.570Z,55.30
2018-01-04T05:51:05.749Z,55.30
2018-01-04T05:53:34.684Z,55.30
2018-01-04T05:56:02.891Z,55.30
2018-01-04T05:58:31.041Z,55.30
2018-01-04T06:00:59.210Z,55.30
2018-01-04T06:03:27.464Z,55.30
2018-01-04T06:05:56.422Z,55.30
2018-01-04T06:08:24.612Z,55.30
2018-01-04T06:10:53.690Z,55.40
2018-01-04T06:13:21.958Z,55.30
2018-01-04T06:15:50.157Z,55.30
2018-01-04T06:18:19.162Z,55.40
2018-01-04T06:20:48.182Z,55.40
2018-01-04T06:23:16.375Z,55.30
2018-01-04T06:25:44.576Z,55.40
2018-01-04T06:28:12.739Z,55.30
2018-01-04T06:30:40.998Z,55.40
2018-01-04T06:33:09.198Z,55.30
2018-01-04T06:35:37.406Z,55.30
2018-01-04T06:38:06.340Z,55.40
2018-01-04T06:40:34.704Z,55.30
2018-01-04T06:43:02.948Z,55.40
2018-01-04T06:45:31.858Z,55.40
2018-01-04T06:48:00.070Z,55.30
2018-01-04T06:50:28.226Z,55.30
2018-01-04T06:52:56.503Z,55.30
2018-01-04T06:55:24.701Z,55.30
2018-01-04T06:57:53.039Z,55.30
2018-01-04T07:00:21.266Z,55.40
2018-01-04T07:02:49.441Z,55.40
2018-01-04T07:05:17.641Z,55.40
2018-01-04T07:07:46.640Z,55.40
2018-01-04T07:10:15.646Z,55.40
2018-01-04T07:12:43.812Z,55.40
2018-01-04T07:15:12.749Z,55.40
2018-01-04T07:17:41.042Z,55.40
2018-01-04T07:20:09.207Z,56.10
2018-01-04T07:22:37.499Z,55.40
2018-01-04T07:25:05.748Z,55.40
2018-01-04T07:27:34.247Z,55.40
2018-01-04T07:30:02.400Z,55.40
2018-01-04T07:32:30.593Z,55.40
2018-01-04T07:34:58.830Z,55.50
2018-01-04T07:37:27.197Z,55.50
2018-01-04T07:39:55.416Z,55.50
2018-01-04T07:42:23.626Z,55.50
2018-01-04T07:44:51.889Z,55.50
2018-01-04T07:47:20.144Z,55.50
2018-01-04T07:49:48.422Z,55.50
2018-01-04T07:52:16.594Z,55.50
2018-01-04T07:54:44.806Z,55.50
2018-01-04T07:57:13.791Z,55.50
2018-01-04T07:59:42.016Z,55.40
2018-01-04T08:02:10.228Z,55.40
2018-01-04T08:04:38.507Z,55.40
2018-01-04T08:07:06.790Z,55.40
2018-01-04T08:09:34.987Z,55.40
2018-01-04T08:12:03.932Z,55.50
2018-01-04T08:14:32.151Z,55.40
2018-01-04T08:17:00.470Z,55.40
2018-01-04T08:19:28.676Z,55.40
2018-01-04T08:21:56.887Z,55.40
2018-01-04T08:24:25.203Z,55.40
2018-01-04T08:26:53.398Z,55.40
2018-01-04T08:29:21.770Z,55.40
2018-01-04T08:31:49.961Z,55.40
2018-01-04T08:34:20.870Z,55.50
2018-01-04T08:36:49.079Z,55.40
2018-01-04T08:39:17.709Z,55.40
2018-01-04T08:41:45.897Z,55.40
2018-01-04T08:44:14.068Z,55.50
2018-01-04T08:46:42.244Z,55.40
2018-01-04T08:49:10.429Z,55.40
2018-01-04T08:51:38.634Z,55.50
2018-01-04T08:54:06.817Z,55.50
2018-01-04T08:56:34.962Z,55.50
2018-01-04T08:59:03.147Z,55.40
2018-01-04T09:01:31.452Z,55.40
2018-01-04T09:04:00.053Z,55.50
2018-01-04T09:06:28.998Z,55.40
2018-01-04T09:08:57.261Z,56.00
2018-01-04T09:11:25.453Z,55.40
2018-01-04T09:13:53.656Z,55.40
2018-01-04T09:16:22.385Z,55.40
2018-01-04T09:18:50.595Z,55.40
2018-01-04T09:21:18.836Z,55.50
2018-01-04T09:23:47.068Z,55.50
2018-01-04T09:26:15.322Z,55.40
2018-01-04T09:28:50.427Z,55.40
2018-01-04T09:31:18.597Z,55.40
2018-01-04T09:33:46.757Z,55.40
2018-01-04T09:36:15.054Z,55.40
2018-01-04T09:38:43.238Z,55.40
2018-01-04T09:41:11.400Z,55.40
2018-01-04T09:43:39.562Z,55.40
2018-01-04T09:46:07.755Z,55.40
2018-01-04T09:48:36.074Z,55.50
2018-01-04T09:51:05.224Z,55.40
2018-01-04T09:53:33.403Z,55.40
2018-01-04T09:56:01.559Z,55.40
2018-01-04T09:58:29.747Z,55.40
2018-01-04T10:00:57.981Z,55.40
2018-01-04T10:03:26.937Z,55.50
2018-01-04T10:05:54.950Z,55.40
2018-01-04T10:08:23.962Z,55.50
2018-01-04T10:10:52.984Z,55.50
2018-01-04T10:13:21.215Z,55.40
2018-01-04T10:15:50.140Z,55.50
2018-01-04T10:18:18.328Z,55.40
2018-01-04T10:20:46.618Z,55.40
2018-01-04T10:23:14.807Z,55.50
2018-01-04T10:25:42.973Z,55.50
2018-01-04T10:28:11.192Z,55.40
2018-01-04T10:30:39.371Z,55.50
2018-01-04T10:33:08.308Z,55.50
2018-01-04T10:35:36.530Z,55.50
2018-01-04T10:38:05.499Z,55.50
2018-01-04T10:40:33.908Z,55.40
2018-01-04T10:43:02.222Z,55.50
2018-01-04T10:45:30.430Z,55.40
2018-01-04T10:47:58.709Z,55.40
2018-01-04T10:50:26.913Z,55.40
2018-01-04T10:52:55.996Z,55.50
2018-01-04T10:55:24.938Z,55.40
2018-01-04T10:57:53.132Z,55.40
2018-01-04T11:00:21.401Z,55.40
2018-01-04T11:02:49.630Z,55.40
2018-01-04T11:05:18.641Z,55.40
2018-01-04T11:07:49.174Z,55.40
2018-01-04T11:10:18.239Z,55.40
2018-01-04T11:12:47.217Z,55.40
2018-01-04T11:15:15.516Z,55.40
2018-01-04T11:17:44.687Z,55.50
2018-01-04T11:20:13.046Z,55.40
2018-01-04T11:22:41.251Z,55.40
2018-01-04T11:25:10.202Z,55.50
2018-01-04T11:27:38.372Z,55.40
2018-01-04T11:30:06.541Z,55.40
2018-01-04T11:32:34.756Z,55.40
2018-01-04T11:35:02.915Z,55.40
2018-01-04T11:37:31.422Z,55.40
2018-01-04T11:40:00.454Z,55.50
2018-01-04T11:42:28.634Z,55.40
2018-01-04T11:44:57.050Z,55.40
2018-01-04T11:47:25.305Z,55.40
2018-01-04T11:49:53.591Z,55.40
2018-01-04T11:52:21.822Z,55.40
2018-01-04T11:54:50.170Z,55.40
2018-01-04T11:57:18.377Z,55.40
2018-01-04T11:59:46.389Z,55.40
2018-01-04T12:02:14.551Z,55.40
2018-01-04T12:04:42.915Z,55.50
2018-01-04T12:07:10.830Z,55.40
2018-01-04T12:09:39.150Z,55.40
2018-01-04T12:12:07.343Z,55.40
2018-01-04T12:14:35.502Z,55.40
2018-01-04T12:17:03.831Z,55.40
2018-01-04T12:19:32.907Z,55.40
2018-01-04T12:22:01.054Z,55.40
2018-01-04T12:24:29.343Z,55.40
2018-01-04T12:26:57.524Z,55.40
2018-01-04T12:29:25.749Z,55.40
2018-01-04T12:31:54.770Z,55.50
2018-01-04T12:34:23.108Z,55.40
2018-01-04T12:36:51.472Z,55.40
2018-01-04T12:39:19.669Z,55.40
2018-01-04T12:41:48.614Z,55.40
2018-01-04T12:44:17.198Z,55.40
2018-01-04T12:46:45.638Z,55.40
2018-01-04T12:49:14.589Z,55.50
2018-01-04T12:51:42.611Z,55.40
2018-01-04T12:54:11.615Z,55.40
2018-01-04T12:56:40.503Z,55.40
2018-01-04T12:59:08.700Z,55.40
2018-01-04T13:01:37.068Z,55.40
2018-01-04T13:04:05.229Z,55.40
2018-01-04T13:06:33.444Z,55.40
2018-01-04T13:09:01.799Z,55.40
2018-01-04T13:11:29.979Z,55.40
2018-01-04T13:13:58.164Z,55.40
2018-01-04T13:16:26.393Z,55.40
2018-01-04T13:18:54.767Z,55.40
2018-01-04T13:21:23.811Z,55.40
2018-01-04T13:23:52.049Z,55.40
2018-01-04T13:26:21.030Z,55.40
2018-01-04T13:28:50.044Z,55.40
2018-01-04T13:31:18.371Z,55.40
2018-01-04T13:33:46.590Z,55.40
2018-01-04T13:36:15.515Z,55.40
2018-01-04T13:38:44.590Z,55.40
2018-01-04T13:41:12.755Z,55.40
2018-01-04T13:43:41.932Z,55.40
2018-01-04T13:46:10.896Z,55.40
2018-01-04T13:48:39.068Z,55.40
2018-01-04T13:51:07.257Z,55.40
2018-01-04T13:53:35.432Z,55.40
2018-01-04T13:56:03.783Z,55.40
2018-01-04T13:58:32.063Z,55.40
2018-01-04T14:01:00.303Z,55.40
2018-01-04T14:03:28.566Z,55.40
2018-01-04T14:05:56.872Z,55.40
2018-01-04T14:08:25.088Z,55.40
2018-01-04T14:10:53.260Z,55.40
2018-01-04T14:13:21.476Z,55.40
2018-01-04T14:15:50.608Z,55.40
2018-01-04T14:18:19.114Z,55.30
2018-01-04T14:20:47.590Z,55.40
2018-01-04T14:23:15.788Z,56.00
2018-01-04T14:25:43.972Z,55.40
2018-01-04T14:28:12.901Z,55.40
2018-01-04T14:30:41.430Z,55.40
2018-01-04T14:33:09.644Z,55.40
2018-01-04T14:35:37.806Z,55.40
2018-01-04T14:38:06.766Z,55.40
2018-01-04T14:40:34.984Z,55.40
2018-01-04T14:43:03.151Z,55.40
2018-01-04T14:45:32.326Z,55.40
2018-01-04T14:48:00.666Z,55.30
2018-01-04T14:50:28.872Z,55.40
2018-01-04T14:52:57.140Z,55.40
2018-01-04T14:55:25.329Z,55.40
2018-01-04T14:57:53.509Z,55.40
2018-01-04T15:00:21.731Z,55.40
2018-01-04T15:02:50.849Z,55.50
2018-01-04T15:05:19.148Z,55.40
2018-01-04T15:07:47.375Z,55.40
2018-01-04T15:10:15.556Z,55.40
2018-01-04T15:12:43.734Z,55.50
2018-01-04T15:15:12.092Z,55.40
2018-01-04T15:17:40.339Z,55.40
2018-01-04T15:20:08.540Z,55.40
2018-01-04T15:22:36.792Z,55.40
2018-01-04T15:25:19.910Z,55.40
2018-01-04T15:27:48.095Z,55.30
2018-01-04T15:30:17.225Z,55.50
2018-01-04T15:32:49.051Z,55.40
2018-01-04T15:35:17.398Z,55.40
2018-01-04T15:37:45.621Z,55.40
2018-01-04T15:40:13.813Z,55.40
2018-01-04T15:42:41.972Z,55.40
2018-01-04T15:45:10.270Z,55.40
2018-01-04T15:47:38.499Z,55.40
2018-01-04T15:50:06.672Z,55.40
2018-01-04T15:52:34.875Z,55.50
2018-01-04T15:55:03.082Z,55.50
2018-01-04T15:57:31.319Z,55.40
2018-01-04T16:00:00.308Z,55.40
2018-01-04T16:02:28.644Z,55.40
2018-01-04T16:04:56.844Z,55.40
2018-01-04T16:07:25.069Z,55.40
2018-01-04T16:09:53.295Z,55.40
2018-01-04T16:12:21.654Z,55.40
2018-01-04T16:14:49.902Z,55.90
2018-01-04T16:17:18.146Z,55.40
2018-01-04T16:19:46.361Z,55.40
2018-01-04T16:22:15.289Z,55.40
2018-01-04T16:24:43.545Z,55.40
2018-01-04T16:27:12.534Z,55.40
2018-01-04T16:29:40.712Z,55.40
2018-01-04T16:32:08.886Z,55.40
2018-01-04T16:34:37.105Z,55.40
2018-01-04T16:37:05.072Z,55.40
2018-01-04T16:39:33.821Z,55.40
2018-01-04T16:42:02.002Z,55.40
2018-01-04T16:44:30.174Z,55.40
2018-01-04T16:46:58.576Z,55.40
2018-01-04T16:49:28.543Z,55.40
2018-01-04T16:51:56.694Z,55.40
2018-01-04T16:54:24.918Z,55.40
2018-01-04T16:56:53.104Z,55.40
2018-01-04T16:59:21.253Z,55.40
2018-01-04T17:01:50.014Z,55.40
2018-01-04T17:04:18.766Z,55.40
2018-01-04T17:06:47.876Z,55.30
2018-01-04T17:09:16.197Z,55.20
2018-01-04T17:11:44.370Z,55.30
2018-01-04T17:14:12.789Z,55.30
2018-01-04T17:16:41.256Z,55.30
2018-01-04T17:19:09.474Z,55.30
2018-01-04T17:21:39.346Z,55.20
2018-01-04T17:24:07.540Z,55.30
2018-01-04T17:26:36.344Z,55.30
2018-01-04T17:29:04.807Z,55.30
2018-01-04T17:31:33.823Z,55.30
2018-01-04T17:34:02.778Z,55.30
2018-01-04T17:36:31.755Z,55.30
2018-01-04T17:39:00.160Z,55.30
2018-01-04T17:41:28.390Z,55.30
2018-01-04T17:43:56.696Z,55.30
2018-01-04T17:46:24.972Z,55.40
2018-01-04T17:48:57.134Z,55.40
2018-01-04T17:51:25.753Z,55.30
2018-01-04T17:53:54.766Z,55.40
2018-01-04T17:56:23.995Z,55.30
2018-01-04T17:58:52.183Z,55.30
2018-01-04T18:01:20.356Z,55.30
2018-01-04T18:03:48.537Z,55.30
2018-01-04T18:06:16.820Z,55.30
2018-01-04T18:08:45.881Z,55.60
2018-01-04T18:11:14.103Z,55.60
2018-01-04T18:13:43.425Z,55.60
2018-01-04T18:16:12.486Z,55.90
2018-01-04T18:18:40.723Z,55.90
2018-01-04T18:21:08.921Z,56.50
2018-01-04T18:23:37.111Z,55.90
2018-01-04T18:26:05.421Z,55.90
2018-01-04T18:28:34.433Z,56.00
2018-01-04T18:31:02.609Z,56.00
2018-01-04T18:33:30.938Z,56.00
2018-01-04T18:35:59.250Z,56.00
2018-01-04T18:38:28.388Z,56.00
2018-01-04T18:40:56.373Z,56.00
2018-01-04T18:43:24.594Z,55.90
2018-01-04T18:45:53.528Z,55.90
2018-01-04T18:48:22.321Z,55.90
2018-01-04T18:50:53.459Z,55.90
2018-01-04T18:53:23.872Z,55.90
2018-01-04T18:55:56.934Z,55.90
2018-01-04T18:58:25.903Z,55.90
2018-01-04T19:00:57.601Z,55.90
2018-01-04T19:03:26.609Z,55.90
2018-01-04T19:06:00.537Z,56.00
2018-01-04T19:08:30.228Z,55.90
2018-01-04T19:10:59.190Z,55.90
2018-01-04T19:13:28.236Z,55.90
2018-01-04T19:15:57.253Z,55.90
2018-01-04T19:18:26.740Z,55.90
2018-01-04T19:20:55.558Z,55.90
2018-01-04T19:23:24.961Z,55.90
2018-01-04T19:25:54.407Z,56.00
2018-01-04T19:28:23.194Z,55.90
2018-01-04T19:30:52.913Z,55.90
2018-01-04T19:33:22.077Z,55.90
2018-01-04T19:35:53.122Z,56.00
2018-01-04T19:38:25.864Z,55.90
2018-01-04T19:41:03.851Z,55.90
2018-01-04T19:43:34.289Z,55.90
2018-01-04T19:46:03.464Z,55.90
2018-01-04T19:48:32.438Z,55.90
2018-01-04T19:51:02.098Z,55.90
2018-01-04T19:53:31.775Z,55.90
2018-01-04T19:56:00.151Z,55.90
2018-01-04T19:58:29.114Z,55.90
2018-01-04T20:00:58.174Z,55.90
2018-01-04T20:03:26.446Z,55.90
2018-01-04T20:05:54.701Z,55.90
2018-01-04T20:08:22.880Z,55.90
2018-01-04T20:10:51.194Z,56.00
2018-01-04T20:13:19.447Z,55.90
2018-01-04T20:15:50.430Z,55.90
2018-01-04T20:21:14.403Z,55.90
2018-01-04T20:29:47.527Z,55.80
2018-01-04T20:32:15.751Z,55.80
2018-01-04T20:34:44.138Z,55.80
2018-01-04T20:40:43.138Z,56.00
2018-01-04T20:43:12.069Z,55.80
2018-01-04T20:52:16.024Z,55.70
2018-01-04T20:54:46.678Z,55.90
2018-01-04T20:57:14.902Z,55.90
2018-01-04T20:59:50.404Z,55.90
2018-01-04T21:02:20.547Z,55.90
2018-01-04T21:04:49.745Z,55.90
2018-01-04T21:07:18.040Z,55.90
2018-01-04T21:09:46.302Z,55.90
2018-01-04T21:12:15.330Z,56.00
2018-01-04T21:14:43.582Z,55.90
2018-01-04T21:17:11.935Z,55.90
2018-01-04T21:19:40.892Z,55.90
2018-01-04T21:22:09.067Z,55.90
2018-01-04T21:24:56.432Z,55.90
2018-01-04T21:27:24.657Z,55.80
2018-01-04T21:29:52.863Z,55.80
2018-01-04T21:32:21.146Z,55.80
2018-01-04T21:34:49.682Z,55.90
2018-01-04T21:37:18.563Z,55.80
2018-01-04T21:39:46.866Z,55.90
2018-01-04T21:42:15.066Z,55.80
2018-01-04T21:44:43.241Z,55.80
2018-01-04T21:47:11.672Z,55.80
2018-01-04T21:49:39.626Z,55.80
2018-01-04T21:52:08.982Z,55.80
2018-01-04T21:54:37.304Z,55.80
2018-01-04T21:57:05.710Z,55.80
2018-01-04T21:59:33.957Z,55.80
2018-01-04T22:02:02.954Z,55.80
2018-01-04T22:04:31.952Z,55.80
2018-01-04T22:07:00.972Z,55.80
2018-01-04T22:09:30.494Z,55.80
2018-01-04T22:11:58.808Z,55.70
2018-01-04T22:14:27.906Z,55.80
2018-01-04T22:16:56.143Z,55.70
2018-01-04T22:19:24.323Z,55.80
2018-01-04T22:21:52.560Z,55.70
2018-01-04T22:24:20.807Z,55.80
2018-01-04T22:26:49.069Z,55.70
2018-01-04T22:29:17.508Z,55.90
2018-01-04T22:31:45.679Z,55.70
2018-01-04T22:34:13.895Z,55.70
2018-01-04T22:36:42.094Z,55.80
2018-01-04T22:39:11.091Z,55.80
2018-01-04T22:41:40.079Z,55.90
2018-01-04T22:44:08.584Z,55.90
2018-01-04T22:46:36.952Z,55.80
2018-01-04T22:49:05.943Z,55.70
2018-01-04T22:51:34.994Z,55.70
2018-01-04T22:54:03.204Z,55.70
2018-01-04T22:56:32.146Z,55.80
2018-01-04T22:59:00.436Z,55.70
2018-01-04T23:01:28.931Z,55.80
2018-01-04T23:03:57.290Z,55.80
2018-01-04T23:06:25.587Z,55.80
2018-01-04T23:08:53.872Z,55.80
2018-01-04T23:11:22.167Z,55.80
2018-01-04T23:13:51.840Z,55.90
2018-01-04T23:16:20.102Z,55.70
2018-01-04T23:18:49.319Z,55.90
2018-01-04T23:21:17.478Z,55.70
2018-01-04T23:23:45.668Z,55.70
2018-01-04T23:26:13.840Z,55.70
2018-01-04T23:28:43.472Z,55.80
2018-01-04T23:31:11.684Z,55.30
2018-01-04T23:33:39.887Z,55.80
2018-01-04T23:36:08.295Z,55.70
2018-01-04T23:38:36.469Z,55.70
2018-01-04T23:41:04.783Z,55.70
2018-01-04T23:43:33.009Z,55.70
2018-01-04T23:46:01.251Z,55.80
2018-01-04T23:48:29.423Z,55.70
2018-01-04T23:50:57.603Z,55.70
2018-01-04T23:53:25.828Z,55.70
2018-01-04T23:55:53.999Z,55.70
2018-01-04T23:58:22.153Z,55.70
